createdAt,value
2017-03-15T10:49:30.857Z,11.91
2017-03-15T10:50:31.505Z,11.73
2017-03-15T10:51:32.172Z,11.75
2017-03-15T10:52:32.827Z,11.75
2017-03-15T10:53:33.496Z,11.75
2017-03-15T10:54:34.144Z,11.7
2017-03-15T10:55:34.812Z,11.87
2017-03-15T10:56:35.464Z,11.83
2017-03-15T10:57:36.134Z,11.83
2017-03-15T10:58:36.814Z,11.77
2017-03-15T10:59:37.537Z,11.8
2017-03-15T11:00:38.200Z,11.88
2017-03-15T11:01:38.848Z,11.97
2017-03-15T11:02:39.507Z,12.07
2017-03-15T11:03:40.168Z,12.18
2017-03-15T11:04:40.862Z,12.15
2017-03-15T11:05:41.521Z,12.07
2017-03-15T11:06:42.199Z,12.07
2017-03-15T11:07:42.874Z,12.1
2017-03-15T11:08:43.553Z,12.06
2017-03-15T11:09:44.396Z,12.07
2017-03-15T11:10:45.043Z,12.03
2017-03-15T11:11:45.723Z,11.94
2017-03-15T11:12:46.382Z,11.8
2017-03-15T11:13:47.067Z,11.73
2017-03-15T11:14:47.731Z,11.73
2017-03-15T11:15:48.397Z,11.77
2017-03-15T11:16:49.085Z,11.7
2017-03-15T11:17:49.758Z,11.69
2017-03-15T11:18:50.413Z,11.63
2017-03-15T11:19:51.088Z,11.65
2017-03-15T11:20:51.831Z,11.6
2017-03-15T11:21:52.483Z,11.63
2017-03-15T11:22:53.141Z,11.66
2017-03-15T11:23:53.821Z,11.59
2017-03-15T11:24:54.508Z,11.69
2017-03-15T11:25:55.177Z,11.65
2017-03-15T11:26:55.860Z,11.63
2017-03-15T11:27:56.518Z,11.54
2017-03-15T11:28:57.215Z,11.5
2017-03-15T11:29:57.943Z,11.5
2017-03-15T11:30:58.611Z,11.5
2017-03-15T11:31:59.272Z,11.51
2017-03-15T11:32:59.953Z,11.65
2017-03-15T11:34:00.608Z,11.65
2017-03-15T11:35:01.278Z,11.73
2017-03-15T11:36:01.949Z,11.72
2017-03-15T11:37:02.620Z,11.84
2017-03-15T11:38:03.286Z,11.88
2017-03-15T11:39:04.026Z,11.88
2017-03-15T11:40:04.676Z,11.97
2017-03-15T11:41:05.466Z,11.99
2017-03-15T11:42:06.124Z,11.95
2017-03-15T11:43:06.782Z,11.99
2017-03-15T11:44:07.451Z,11.94
2017-03-15T11:45:08.102Z,12.02
2017-03-15T11:46:08.773Z,12.07
2017-03-15T11:47:09.439Z,12.13
2017-03-15T11:48:10.119Z,12.02
2017-03-15T11:49:10.781Z,12.03
2017-03-15T11:50:11.423Z,11.99
2017-03-15T11:51:12.201Z,11.94
2017-03-15T11:52:12.816Z,11.88
2017-03-15T11:53:13.542Z,11.9
2017-03-15T11:54:14.192Z,11.9
2017-03-15T11:55:14.891Z,11.9
2017-03-15T11:56:15.550Z,11.84
2017-03-15T11:57:16.234Z,11.88
2017-03-15T11:58:16.882Z,11.88
2017-03-15T11:59:17.560Z,12.02
2017-03-15T12:00:18.231Z,12
2017-03-15T12:01:18.872Z,12.04
2017-03-15T12:02:19.508Z,12.1
2017-03-15T12:03:20.165Z,12.17
2017-03-15T12:04:20.830Z,12.21
2017-03-15T12:05:21.491Z,12.21
2017-03-15T12:06:22.163Z,12.24
2017-03-15T12:07:22.849Z,12.31
2017-03-15T12:08:23.504Z,12.22
2017-03-15T12:09:24.158Z,12.22
2017-03-15T12:10:24.849Z,12.24
2017-03-15T12:11:25.516Z,12.27
2017-03-15T12:12:26.187Z,12.22
2017-03-15T12:13:26.879Z,12.31
2017-03-15T12:14:27.551Z,12.25
2017-03-15T12:15:28.208Z,12.27
2017-03-15T12:16:28.901Z,12.36
2017-03-15T12:17:29.580Z,12.5
2017-03-15T12:18:30.254Z,12.62
2017-03-15T12:19:30.903Z,12.62
2017-03-15T12:20:31.570Z,12.47
2017-03-15T12:21:32.223Z,12.57
2017-03-15T12:22:32.882Z,12.55
2017-03-15T12:23:33.538Z,12.61
2017-03-15T12:24:34.205Z,12.53
2017-03-15T12:25:34.870Z,12.61
2017-03-15T12:26:35.530Z,12.72
2017-03-15T12:27:36.193Z,12.83
2017-03-15T12:28:36.857Z,13
2017-03-15T12:29:37.522Z,12.86
2017-03-15T12:30:38.169Z,13.01
2017-03-15T12:31:38.816Z,12.95
2017-03-15T12:32:39.478Z,12.93
2017-03-15T12:33:40.140Z,13.11
2017-03-15T12:34:40.806Z,13.11
2017-03-15T12:35:41.447Z,13.22
2017-03-15T12:36:42.137Z,13.18
2017-03-15T12:37:42.800Z,13.11
2017-03-15T12:38:43.466Z,13.04
2017-03-15T12:39:44.108Z,13.12
2017-03-15T12:40:44.771Z,13.11
2017-03-15T12:41:45.430Z,13.12
2017-03-15T12:42:46.080Z,13.08
2017-03-15T12:43:46.740Z,12.97
2017-03-15T12:44:47.399Z,12.98
2017-03-15T12:45:48.106Z,12.94
2017-03-15T12:46:48.760Z,12.85
2017-03-15T12:47:49.437Z,12.73
2017-03-15T12:48:50.089Z,12.65
2017-03-15T12:49:50.764Z,12.6
2017-03-15T12:50:51.406Z,12.53
2017-03-15T12:51:52.056Z,12.43
2017-03-15T12:52:52.712Z,12.36
2017-03-15T12:53:53.371Z,12.36
2017-03-15T12:54:54.043Z,12.29
2017-03-15T12:55:54.692Z,12.4
2017-03-15T12:56:55.337Z,12.36
2017-03-15T12:57:55.988Z,12.24
2017-03-15T12:58:56.678Z,12.29
2017-03-15T12:59:57.355Z,12.27
2017-03-15T13:00:58.003Z,12.24
2017-03-15T13:01:58.674Z,12.36
2017-03-15T13:02:59.317Z,12.31
2017-03-15T13:03:59.978Z,12.31
2017-03-15T13:05:00.667Z,12.24
2017-03-15T13:06:01.318Z,12.27
2017-03-15T13:07:01.993Z,12.21
2017-03-15T13:08:02.678Z,12.25
2017-03-15T13:09:03.327Z,12.25
2017-03-15T13:10:03.979Z,12.36
2017-03-15T13:11:04.645Z,12.36
2017-03-15T13:12:05.309Z,12.4
2017-03-15T13:13:05.968Z,12.37
2017-03-15T13:14:06.602Z,12.39
2017-03-15T13:15:07.292Z,12.4
2017-03-15T13:16:07.941Z,12.46
2017-03-15T13:17:08.611Z,12.43
2017-03-15T13:18:09.269Z,12.28
2017-03-15T13:19:09.993Z,12.17
2017-03-15T13:20:10.652Z,12.18
2017-03-15T13:21:11.297Z,12.21
2017-03-15T13:22:11.965Z,12.27
2017-03-15T13:23:12.612Z,12.17
2017-03-15T13:24:13.276Z,12.18
2017-03-15T13:25:13.930Z,12.13
2017-03-15T13:26:14.592Z,12.04
2017-03-15T13:27:15.291Z,11.99
2017-03-15T13:28:15.951Z,11.87
2017-03-15T13:29:16.619Z,11.69
2017-03-15T13:30:17.275Z,11.75
2017-03-15T13:31:17.921Z,11.84
2017-03-15T13:32:18.590Z,11.75
2017-03-15T13:33:19.261Z,11.7
2017-03-15T13:34:19.901Z,11.72
2017-03-15T13:35:20.554Z,11.66
2017-03-15T13:36:21.199Z,11.65
2017-03-15T13:37:21.864Z,11.69
2017-03-15T13:38:22.525Z,11.63
2017-03-15T13:39:23.165Z,11.66
2017-03-15T13:40:23.882Z,11.63
2017-03-15T13:41:24.550Z,11.63
2017-03-15T13:42:25.212Z,11.59
2017-03-15T13:43:25.904Z,11.66
2017-03-15T13:44:26.563Z,11.59
2017-03-15T13:45:27.244Z,11.63
2017-03-15T13:46:27.906Z,11.69
2017-03-15T13:47:28.587Z,11.69
2017-03-15T13:48:29.253Z,11.68
2017-03-15T13:49:29.923Z,11.66
2017-03-15T13:50:30.596Z,11.69
2017-03-15T13:51:31.311Z,11.66
2017-03-15T13:52:31.997Z,11.68
2017-03-15T13:53:32.664Z,11.68
2017-03-15T13:54:33.366Z,11.59
2017-03-15T13:55:34.058Z,11.57
2017-03-15T13:56:34.715Z,11.62
2017-03-15T13:57:35.386Z,11.55
2017-03-15T13:58:36.043Z,11.59
2017-03-15T13:59:36.702Z,11.62
2017-03-15T14:00:37.366Z,11.45
2017-03-15T14:01:38.015Z,11.48
2017-03-15T14:02:38.675Z,11.41
2017-03-15T14:03:39.326Z,11.44
2017-03-15T14:04:39.999Z,11.48
2017-03-15T14:05:40.656Z,11.47
2017-03-15T14:06:41.364Z,11.44
2017-03-15T14:07:42.018Z,11.33
2017-03-15T14:08:42.680Z,11.41
2017-03-15T14:09:43.343Z,11.41
2017-03-15T14:10:44.011Z,11.47
2017-03-15T14:11:44.675Z,11.44
2017-03-15T14:12:45.326Z,11.48
2017-03-15T14:13:46.005Z,11.45
2017-03-15T14:14:46.677Z,11.44
2017-03-15T14:15:47.380Z,11.47
2017-03-15T14:16:48.101Z,11.37
2017-03-15T14:17:48.769Z,11.4
2017-03-15T14:18:49.447Z,11.36
2017-03-15T14:19:50.140Z,11.33
2017-03-15T14:20:50.786Z,11.41
2017-03-15T14:21:51.462Z,11.37
2017-03-15T14:22:52.100Z,11.47
2017-03-15T14:23:52.812Z,11.44
2017-03-15T14:24:53.468Z,11.23
2017-03-15T14:25:54.428Z,11.22
2017-03-15T14:26:55.453Z,11.22
2017-03-15T14:27:56.127Z,11.29
2017-03-15T14:28:56.796Z,11.36
2017-03-15T14:29:57.446Z,11.4
2017-03-15T14:30:58.105Z,11.29
2017-03-15T14:31:58.772Z,11.25
2017-03-15T14:32:59.467Z,11.26
2017-03-15T14:34:00.112Z,11.29
2017-03-15T14:35:00.784Z,11.23
2017-03-15T14:36:01.461Z,11.22
2017-03-15T14:37:02.148Z,11.19
2017-03-15T14:38:02.859Z,11.26
2017-03-15T14:39:03.543Z,11.26
2017-03-15T14:40:04.197Z,11.33
2017-03-15T14:41:04.888Z,11.27
2017-03-15T14:42:05.559Z,11.23
2017-03-15T14:43:06.208Z,11.26
2017-03-15T14:44:06.857Z,11.15
2017-03-15T14:45:07.526Z,11.12
2017-03-15T14:46:08.176Z,11.15
2017-03-15T14:47:08.853Z,11.17
2017-03-15T14:48:09.517Z,11.15
2017-03-15T14:49:10.191Z,11.15
2017-03-15T14:50:10.838Z,11.15
2017-03-15T14:51:11.532Z,11.1
2017-03-15T14:52:12.329Z,11.15
2017-03-15T14:53:12.995Z,11.1
2017-03-15T14:54:13.656Z,11.07
2017-03-15T14:55:14.320Z,11.1
2017-03-15T14:56:14.977Z,11.11
2017-03-15T14:57:15.636Z,11.07
2017-03-15T14:58:16.298Z,11.07
2017-03-15T14:59:16.976Z,11.12
2017-03-15T15:00:17.676Z,11.07
2017-03-15T15:01:18.328Z,11.08
2017-03-15T15:02:18.995Z,11.1
2017-03-15T15:03:19.668Z,11.14
2017-03-15T15:04:20.340Z,11.11
2017-03-15T15:05:21.015Z,11.15
2017-03-15T15:06:21.680Z,11.18
2017-03-15T15:07:22.333Z,11.15
2017-03-15T15:08:23.010Z,11.19
2017-03-15T15:09:23.696Z,11.25
2017-03-15T15:10:24.363Z,11.22
2017-03-15T15:11:25.051Z,11.26
2017-03-15T15:12:25.717Z,11.25
2017-03-15T15:13:26.395Z,11.22
2017-03-15T15:14:27.064Z,11.22
2017-03-15T15:15:27.731Z,11.22
2017-03-15T15:16:28.406Z,11.25
2017-03-15T15:17:29.081Z,11.12
2017-03-15T15:18:29.734Z,11.08
2017-03-15T15:19:30.428Z,11.15
2017-03-15T15:20:31.102Z,11.11
2017-03-15T15:21:31.764Z,11.1
2017-03-15T15:22:32.436Z,11.11
2017-03-15T15:23:33.119Z,10.89
2017-03-15T15:24:33.783Z,10.99
2017-03-15T15:25:34.452Z,11.04
2017-03-15T15:26:35.151Z,11.08
2017-03-15T15:27:35.807Z,10.96
2017-03-15T15:28:36.474Z,10.97
2017-03-15T15:29:37.147Z,10.92
2017-03-15T15:30:37.813Z,10.9
2017-03-15T15:31:38.489Z,10.97
2017-03-15T15:32:39.162Z,11.07
2017-03-15T15:33:39.823Z,10.97
2017-03-15T15:34:40.488Z,10.93
2017-03-15T15:35:41.145Z,10.94
2017-03-15T15:36:41.803Z,10.92
2017-03-15T15:37:42.472Z,10.93
2017-03-15T15:38:43.136Z,10.9
2017-03-15T15:39:43.854Z,10.96
2017-03-15T15:40:44.550Z,10.93
2017-03-15T15:41:45.205Z,10.99
2017-03-15T15:42:45.875Z,10.9
2017-03-15T15:43:46.558Z,11
2017-03-15T15:44:47.232Z,10.97
2017-03-15T15:45:47.895Z,10.94
2017-03-15T15:46:48.572Z,10.9
2017-03-15T15:47:49.232Z,10.93
2017-03-15T15:48:49.929Z,10.87
2017-03-15T15:49:50.632Z,10.89
2017-03-15T15:50:51.330Z,10.87
2017-03-15T15:51:51.979Z,10.87
2017-03-15T15:52:52.677Z,10.97
2017-03-15T15:53:53.332Z,10.97
2017-03-15T15:54:54.003Z,10.96
2017-03-15T15:55:54.673Z,10.94
2017-03-15T15:56:55.397Z,10.93
2017-03-15T15:57:56.068Z,10.9
2017-03-15T15:58:56.795Z,10.92
2017-03-15T15:59:57.450Z,10.84
2017-03-15T16:00:58.120Z,10.89
2017-03-15T16:01:58.794Z,10.84
2017-03-15T16:02:59.502Z,10.78
2017-03-15T16:04:00.172Z,10.78
2017-03-15T16:05:00.825Z,10.79
2017-03-15T16:06:01.542Z,10.74
2017-03-15T16:07:02.218Z,10.79
2017-03-15T16:08:02.888Z,10.84
2017-03-15T16:09:03.567Z,10.75
2017-03-15T16:10:04.231Z,10.86
2017-03-15T16:11:04.898Z,10.86
2017-03-15T16:12:05.555Z,10.81
2017-03-15T16:13:06.211Z,10.79
2017-03-15T16:14:06.856Z,10.79
2017-03-15T16:15:07.517Z,10.76
2017-03-15T16:16:08.199Z,10.67
2017-03-15T16:17:08.884Z,10.69
2017-03-15T16:18:09.551Z,10.63
2017-03-15T16:19:10.208Z,10.63
2017-03-15T16:20:10.885Z,10.67
2017-03-15T16:21:11.554Z,10.63
2017-03-15T16:22:12.208Z,10.69
2017-03-15T16:23:12.876Z,10.68
2017-03-15T16:24:13.565Z,10.67
2017-03-15T16:25:14.221Z,10.6
2017-03-15T16:26:14.920Z,10.74
2017-03-15T16:27:15.584Z,10.63
2017-03-15T16:28:16.236Z,10.6
2017-03-15T16:29:16.913Z,10.61
2017-03-15T16:30:17.633Z,10.57
2017-03-15T16:31:18.314Z,10.53
2017-03-15T16:32:19.029Z,10.48
2017-03-15T16:33:19.697Z,10.57
2017-03-15T16:34:20.375Z,10.54
2017-03-15T16:35:21.108Z,10.53
2017-03-15T16:36:21.789Z,10.56
2017-03-15T16:37:22.448Z,10.54
2017-03-15T16:38:23.106Z,10.49
2017-03-15T16:39:23.791Z,10.4
2017-03-15T16:40:24.487Z,10.53
2017-03-15T16:41:25.176Z,10.51
2017-03-15T16:42:25.852Z,10.41
2017-03-15T16:43:26.524Z,10.48
2017-03-15T16:44:27.266Z,10.44
2017-03-15T16:45:27.949Z,10.4
2017-03-15T16:46:28.616Z,10.37
2017-03-15T16:47:29.307Z,10.31
2017-03-15T16:48:29.969Z,10.34
2017-03-15T16:49:30.655Z,10.3
2017-03-15T16:50:31.322Z,10.23
2017-03-15T16:51:31.976Z,10.28
2017-03-15T16:52:32.636Z,10.16
2017-03-15T16:53:33.316Z,10.23
2017-03-15T16:54:33.988Z,10.2
2017-03-15T16:55:34.655Z,10.17
2017-03-15T16:56:35.304Z,10.25
2017-03-15T16:57:35.954Z,10.19
2017-03-15T16:58:36.633Z,10.25
2017-03-15T16:59:37.293Z,10.28
2017-03-15T17:00:37.963Z,10.26
2017-03-15T17:01:38.628Z,10.07
2017-03-15T17:02:39.313Z,10.05
2017-03-15T17:03:39.992Z,10.16
2017-03-15T17:04:40.659Z,10.12
2017-03-15T17:05:41.301Z,10.07
2017-03-15T17:06:41.992Z,10.15
2017-03-15T17:07:42.656Z,10.1
2017-03-15T17:08:43.345Z,10.02
2017-03-15T17:09:43.998Z,9.95
2017-03-15T17:10:44.687Z,10.1
2017-03-15T17:11:45.343Z,10.04
2017-03-15T17:12:45.999Z,9.95
2017-03-15T17:13:46.743Z,10.02
2017-03-15T17:14:47.427Z,10.01
2017-03-15T17:15:48.119Z,9.99
2017-03-15T17:16:48.762Z,9.87
2017-03-15T17:17:49.436Z,9.97
2017-03-15T17:18:50.102Z,9.99
2017-03-15T17:19:50.750Z,9.99
2017-03-15T17:20:51.851Z,9.82
2017-03-15T17:21:52.538Z,9.83
2017-03-15T17:22:53.207Z,9.83
2017-03-15T17:23:53.886Z,9.84
2017-03-15T17:24:54.584Z,9.86
2017-03-15T17:25:55.250Z,9.86
2017-03-15T17:26:56.040Z,9.79
2017-03-15T17:27:57.400Z,9.72
2017-03-15T17:28:57.810Z,9.79
2017-03-15T17:29:58.476Z,9.72
2017-03-15T17:30:59.203Z,9.74
2017-03-15T17:31:59.919Z,9.72
2017-03-15T17:33:00.634Z,9.76
2017-03-15T17:34:01.313Z,9.69
2017-03-15T17:35:01.964Z,9.64
2017-03-15T17:36:02.679Z,9.72
2017-03-15T17:37:03.357Z,9.65
2017-03-15T17:38:04.011Z,9.61
2017-03-15T17:39:04.702Z,9.62
2017-03-15T17:40:05.353Z,9.61
2017-03-15T17:41:06.020Z,9.55
2017-03-15T17:42:06.716Z,9.5
2017-03-15T17:43:07.378Z,9.46
2017-03-15T17:44:08.054Z,9.51
2017-03-15T17:45:08.738Z,9.44
2017-03-15T17:46:09.441Z,9.36
2017-03-15T17:47:10.213Z,9.39
2017-03-15T17:48:10.898Z,9.4
2017-03-15T17:49:11.563Z,9.32
2017-03-15T17:50:12.242Z,9.4
2017-03-15T17:51:12.940Z,9.39
2017-03-15T17:52:13.642Z,9.39
2017-03-15T17:53:14.314Z,9.39
2017-03-15T17:54:15.004Z,9.36
2017-03-15T17:55:15.696Z,9.32
2017-03-15T17:56:16.366Z,9.4
2017-03-15T17:57:17.040Z,9.29
2017-03-15T17:58:17.743Z,9.32
2017-03-15T17:59:18.456Z,9.26
2017-03-15T18:00:19.114Z,9.26
2017-03-15T18:01:19.833Z,9.21
2017-03-15T18:02:20.588Z,9.19
2017-03-15T18:03:21.237Z,9.18
2017-03-15T18:04:21.908Z,9.21
2017-03-15T18:05:22.569Z,9.19
2017-03-15T18:06:23.254Z,9.19
2017-03-15T18:07:23.924Z,9.13
2017-03-15T18:08:24.662Z,9.19
2017-03-15T18:09:25.379Z,9.04
2017-03-15T18:10:26.039Z,9.06
2017-03-15T18:11:26.711Z,9.06
2017-03-15T18:12:27.441Z,9.08
2017-03-15T18:13:28.134Z,9.03
2017-03-15T18:14:28.788Z,9.04
2017-03-15T18:15:29.458Z,9.04
2017-03-15T18:16:30.130Z,9.08
2017-03-15T18:17:30.807Z,9.02
2017-03-15T18:18:31.460Z,9
2017-03-15T18:19:32.124Z,9
2017-03-15T18:20:32.796Z,8.99
2017-03-15T18:21:33.497Z,8.95
2017-03-15T18:22:34.296Z,8.99
2017-03-15T18:23:35.067Z,8.99
2017-03-15T18:24:35.762Z,8.97
2017-03-15T18:25:36.479Z,8.92
2017-03-15T18:26:37.138Z,9.03
2017-03-15T18:27:37.883Z,8.88
2017-03-15T18:28:38.568Z,9
2017-03-15T18:29:39.227Z,8.97
2017-03-15T18:30:39.883Z,8.88
2017-03-15T18:31:40.550Z,8.94
2017-03-15T18:32:41.321Z,8.85
2017-03-15T18:33:41.969Z,8.91
2017-03-15T18:34:42.640Z,8.81
2017-03-15T18:35:43.305Z,8.81
2017-03-15T18:36:44.092Z,8.88
2017-03-15T18:37:44.769Z,8.82
2017-03-15T18:38:45.426Z,8.81
2017-03-15T18:39:46.086Z,8.87
2017-03-15T18:40:46.736Z,8.85
2017-03-15T18:41:47.400Z,8.85
2017-03-15T18:42:48.125Z,8.81
2017-03-15T18:43:48.773Z,8.87
2017-03-15T18:44:49.421Z,8.81
2017-03-15T18:45:50.086Z,8.79
2017-03-15T18:46:50.752Z,8.82
2017-03-15T18:47:51.408Z,8.85
2017-03-15T18:48:52.054Z,8.78
2017-03-15T18:49:52.724Z,8.82
2017-03-15T18:50:53.416Z,8.74
2017-03-15T18:51:54.073Z,8.74
2017-03-15T18:52:54.755Z,8.66
2017-03-15T18:53:55.439Z,8.67
2017-03-15T18:54:56.130Z,8.73
2017-03-15T18:55:56.787Z,8.71
2017-03-15T18:56:57.463Z,8.67
2017-03-15T18:57:58.135Z,8.7
2017-03-15T18:58:58.791Z,8.67
2017-03-15T18:59:59.446Z,8.67
2017-03-15T19:01:00.147Z,8.69
2017-03-15T19:02:00.789Z,8.69
2017-03-15T19:03:01.447Z,8.64
2017-03-15T19:04:02.101Z,8.73
2017-03-15T19:05:02.755Z,8.73
2017-03-15T19:06:03.402Z,8.63
2017-03-15T19:07:04.089Z,8.67
2017-03-15T19:08:04.751Z,8.6
2017-03-15T19:09:05.407Z,8.64
2017-03-15T19:10:06.074Z,8.6
2017-03-15T19:11:06.819Z,8.69
2017-03-15T19:12:07.482Z,8.63
2017-03-15T19:13:08.506Z,8.55
2017-03-15T19:14:09.486Z,8.61
2017-03-15T19:15:10.138Z,8.6
2017-03-15T19:16:10.799Z,8.58
2017-03-15T19:17:11.469Z,8.56
2017-03-15T19:18:12.432Z,8.53
2017-03-15T19:19:13.109Z,8.51
2017-03-15T19:20:13.761Z,8.49
2017-03-15T19:21:14.408Z,8.51
2017-03-15T19:22:15.062Z,8.48
2017-03-15T19:23:15.724Z,8.49
2017-03-15T19:24:16.483Z,8.44
2017-03-15T19:25:17.157Z,8.41
2017-03-15T19:26:17.865Z,8.48
2017-03-15T19:27:18.524Z,8.45
2017-03-15T19:28:19.178Z,8.45
2017-03-15T19:29:19.826Z,8.41
2017-03-15T19:30:20.489Z,8.49
2017-03-15T19:31:21.150Z,8.48
2017-03-15T19:32:21.832Z,8.41
2017-03-15T19:33:22.508Z,8.42
2017-03-15T19:34:23.377Z,8.37
2017-03-15T19:35:24.038Z,8.41
2017-03-15T19:36:24.690Z,8.42
2017-03-15T19:37:25.350Z,8.42
2017-03-15T19:38:26.032Z,8.45
2017-03-15T19:39:26.680Z,8.38
2017-03-15T19:40:27.380Z,8.36
2017-03-15T19:41:28.066Z,8.31
2017-03-15T19:42:29.332Z,8.38
2017-03-15T19:43:29.984Z,8.37
2017-03-15T19:44:30.667Z,8.37
2017-03-15T19:45:31.314Z,8.27
2017-03-15T19:46:31.965Z,8.33
2017-03-15T19:47:32.624Z,8.34
2017-03-15T19:48:33.283Z,8.31
2017-03-15T19:49:33.921Z,8.33
2017-03-15T19:50:34.757Z,8.33
2017-03-15T19:51:35.426Z,8.28
2017-03-15T19:52:36.101Z,8.23
2017-03-15T19:53:36.792Z,8.34
2017-03-15T19:54:37.441Z,8.3
2017-03-15T19:55:38.107Z,8.26
2017-03-15T19:56:38.782Z,8.31
2017-03-15T19:57:39.441Z,8.27
2017-03-15T19:58:40.101Z,8.31
2017-03-15T19:59:40.796Z,8.3
2017-03-15T20:00:41.471Z,8.26
2017-03-15T20:01:42.127Z,8.24
2017-03-15T20:02:42.836Z,8.2
2017-03-15T20:03:43.653Z,8.24
2017-03-15T20:04:44.392Z,8.19
2017-03-15T20:05:45.074Z,8.26
2017-03-15T20:06:45.909Z,8.18
2017-03-15T20:07:46.716Z,8.15
2017-03-15T20:08:47.361Z,8.23
2017-03-15T20:09:48.152Z,8.23
2017-03-15T20:10:48.877Z,8.24
2017-03-15T20:11:49.606Z,8.23
2017-03-15T20:12:50.426Z,8.2
2017-03-15T20:13:51.188Z,8.24
2017-03-15T20:14:51.895Z,8.13
2017-03-15T20:15:52.766Z,8.1
2017-03-15T20:16:53.638Z,8.12
2017-03-15T20:17:54.314Z,8.19
2017-03-15T20:18:55.064Z,8.24
2017-03-15T20:19:55.859Z,8.34
2017-03-15T20:20:56.656Z,8.33
2017-03-15T20:21:57.401Z,8.33
2017-03-15T20:22:58.352Z,8.28
2017-03-15T20:23:59.079Z,8.34
2017-03-15T20:25:00.197Z,8.33
2017-03-15T20:26:01.010Z,8.31
2017-03-15T20:27:01.749Z,8.33
2017-03-15T20:28:02.710Z,8.24
2017-03-15T20:29:03.403Z,8.27
2017-03-15T20:30:04.100Z,8.19
2017-03-15T20:31:04.802Z,8.24
2017-03-15T20:32:05.475Z,8.23
2017-03-15T20:33:06.149Z,8.27
2017-03-15T20:34:06.818Z,8.23
2017-03-15T20:35:07.755Z,8.2
2017-03-15T20:36:08.578Z,8.19
2017-03-15T20:37:09.375Z,8.26
2017-03-15T20:38:10.109Z,8.1
2017-03-15T20:39:10.806Z,8.18
2017-03-15T20:40:11.643Z,8.13
2017-03-15T20:41:12.337Z,8.09
2017-03-15T20:42:13.292Z,8.15
2017-03-15T20:43:13.973Z,8.16
2017-03-15T20:44:14.713Z,8.16
2017-03-15T20:45:15.457Z,8.1
2017-03-15T20:46:16.152Z,8.18
2017-03-15T20:47:16.821Z,8.16
2017-03-15T20:48:17.507Z,8.08
2017-03-15T20:49:18.183Z,8.05
2017-03-15T20:50:18.865Z,8.09
2017-03-15T20:51:19.529Z,8.08
2017-03-15T20:52:20.195Z,8.12
2017-03-15T20:53:20.951Z,8.06
2017-03-15T20:54:21.624Z,8.13
2017-03-15T20:55:22.296Z,8.05
2017-03-15T20:56:23.009Z,8.09
2017-03-15T20:57:23.713Z,8.12
2017-03-15T20:58:24.382Z,8.08
2017-03-15T20:59:25.043Z,8.09
2017-03-15T21:00:25.718Z,8.09
2017-03-15T21:01:27.475Z,8.12
2017-03-15T21:02:27.395Z,8.06
2017-03-15T21:03:28.080Z,8.03
2017-03-15T21:04:28.785Z,8.03
2017-03-15T21:05:29.601Z,7.95
2017-03-15T21:06:30.437Z,8.08
2017-03-15T21:07:31.139Z,8.08
2017-03-15T21:08:31.851Z,8.08
2017-03-15T21:09:32.570Z,8.12
2017-03-15T21:10:33.306Z,8.1
2017-03-15T21:11:34.070Z,8.09
2017-03-15T21:12:34.775Z,8.03
2017-03-15T21:13:35.443Z,8.1
2017-03-15T21:14:36.183Z,8.1
2017-03-15T21:15:36.891Z,8.05
2017-03-15T21:16:37.718Z,7.93
2017-03-15T21:17:38.443Z,7.94
2017-03-15T21:18:39.168Z,8.01
2017-03-15T21:19:39.996Z,7.94
2017-03-15T21:20:40.788Z,8.01
2017-03-15T21:21:41.754Z,7.98
2017-03-15T21:22:42.526Z,7.91
2017-03-15T21:23:43.197Z,7.94
2017-03-15T21:24:43.924Z,7.94
2017-03-15T21:25:44.665Z,7.94
2017-03-15T21:26:45.622Z,7.97
2017-03-15T21:27:46.439Z,8
2017-03-15T21:28:47.168Z,7.98
2017-03-15T21:29:47.844Z,8.01
2017-03-15T21:30:48.507Z,7.93
2017-03-15T21:31:49.176Z,7.88
2017-03-15T21:32:49.853Z,7.9
2017-03-15T21:33:50.586Z,7.93
2017-03-15T21:34:51.261Z,8.03
2017-03-15T21:35:51.957Z,7.97
2017-03-15T21:36:52.650Z,7.88
2017-03-15T21:37:53.382Z,7.87
2017-03-15T21:38:54.047Z,7.8
2017-03-15T21:39:54.760Z,7.77
2017-03-15T21:40:55.564Z,7.79
2017-03-15T21:41:56.227Z,7.75
2017-03-15T21:42:57.016Z,7.8
2017-03-15T21:43:57.695Z,7.75
2017-03-15T21:44:58.395Z,7.77
2017-03-15T21:45:59.050Z,7.8
2017-03-15T21:46:59.888Z,7.73
2017-03-15T21:48:00.657Z,7.76
2017-03-15T21:49:01.410Z,7.77
2017-03-15T21:50:02.061Z,7.75
2017-03-15T21:51:02.747Z,7.69
2017-03-15T21:52:03.491Z,7.76
2017-03-15T21:53:04.193Z,7.77
2017-03-15T21:54:04.951Z,7.63
2017-03-15T21:55:05.652Z,7.77
2017-03-15T21:56:06.376Z,7.63
2017-03-15T21:57:07.257Z,7.77
2017-03-15T21:58:08.012Z,7.82
2017-03-15T21:59:08.678Z,7.76
2017-03-15T22:00:09.459Z,7.82
2017-03-15T22:01:10.228Z,7.69
2017-03-15T22:02:10.964Z,7.69
2017-03-15T22:03:11.709Z,7.69
2017-03-15T22:04:12.455Z,7.61
2017-03-15T22:05:13.232Z,7.66
2017-03-15T22:06:13.914Z,7.56
2017-03-15T22:07:14.654Z,7.57
2017-03-15T22:08:15.383Z,7.53
2017-03-15T22:09:16.148Z,7.56
2017-03-15T22:10:16.855Z,7.67
2017-03-15T22:11:17.631Z,7.77
2017-03-15T22:12:18.281Z,7.97
2017-03-15T22:13:19.218Z,7.93
2017-03-15T22:14:19.963Z,8.08
2017-03-15T22:15:20.749Z,8.05
2017-03-15T22:16:21.429Z,7.97
2017-03-15T22:17:22.111Z,7.82
2017-03-15T22:18:22.786Z,7.76
2017-03-15T22:19:23.452Z,7.8
2017-03-15T22:20:24.136Z,7.76
2017-03-15T22:21:24.794Z,7.63
2017-03-15T22:22:25.822Z,7.61
2017-03-15T22:23:27.064Z,7.67
2017-03-15T22:24:28.571Z,7.66
2017-03-15T22:25:29.590Z,7.56
2017-03-15T22:26:30.247Z,7.45
2017-03-15T22:27:30.939Z,7.47
2017-03-15T22:28:31.595Z,7.45
2017-03-15T22:29:32.265Z,7.42
2017-03-15T22:30:32.935Z,7.36
2017-03-15T22:31:33.618Z,7.43
2017-03-15T22:32:34.285Z,7.45
2017-03-15T22:33:34.954Z,7.39
2017-03-15T22:34:35.629Z,7.31
2017-03-15T22:35:36.319Z,7.31
2017-03-15T22:36:36.980Z,7.33
2017-03-15T22:37:37.664Z,7.29
2017-03-15T22:38:38.365Z,7.24
2017-03-15T22:39:39.042Z,7.21
2017-03-15T22:40:39.705Z,7.25
2017-03-15T22:41:40.411Z,7.25
2017-03-15T22:42:41.082Z,7.21
2017-03-15T22:43:41.764Z,7.31
2017-03-15T22:44:42.450Z,7.24
2017-03-15T22:45:43.108Z,7.29
2017-03-15T22:46:43.759Z,7.23
2017-03-15T22:47:44.418Z,7.25
2017-03-15T22:48:45.110Z,7.25
2017-03-15T22:49:45.771Z,7.28
2017-03-15T22:50:46.441Z,7.21
2017-03-15T22:51:47.117Z,7.31
2017-03-15T22:52:47.776Z,7.31
2017-03-15T22:53:48.445Z,7.15
2017-03-15T22:54:49.121Z,7.17
2017-03-15T22:55:49.789Z,7.17
2017-03-15T22:56:50.466Z,7.15
2017-03-15T22:57:51.139Z,7.21
2017-03-15T22:58:51.806Z,7.13
2017-03-15T22:59:52.456Z,7.03
2017-03-15T23:00:53.106Z,7.06
2017-03-15T23:01:53.755Z,7.06
2017-03-15T23:02:54.402Z,7.06
2017-03-15T23:03:55.075Z,7.1
2017-03-15T23:04:55.734Z,7.13
2017-03-15T23:05:56.387Z,7.07
2017-03-15T23:06:57.056Z,7.07
2017-03-15T23:07:57.712Z,7.11
2017-03-15T23:08:58.369Z,7.05
2017-03-15T23:09:59.026Z,7.11
2017-03-15T23:10:59.677Z,7.07
2017-03-15T23:12:00.312Z,7.1
2017-03-15T23:13:00.977Z,7.07
2017-03-15T23:14:01.643Z,7.15
2017-03-15T23:15:02.312Z,7.14
2017-03-15T23:16:02.982Z,7.11
2017-03-15T23:17:03.652Z,7.1
2017-03-15T23:18:04.302Z,7.1
2017-03-15T23:19:04.945Z,7.11
2017-03-15T23:20:05.598Z,7.1
2017-03-15T23:21:06.349Z,7.1
2017-03-15T23:22:07.011Z,7.11
2017-03-15T23:23:07.659Z,7.07
2017-03-15T23:24:08.312Z,7.1
2017-03-15T23:25:08.969Z,7.1
2017-03-15T23:26:09.793Z,7.1
2017-03-15T23:27:10.440Z,7.11
2017-03-15T23:28:11.099Z,7.06
2017-03-15T23:29:11.779Z,7.07
2017-03-15T23:30:12.465Z,7.05
2017-03-15T23:31:13.142Z,7.1
2017-03-15T23:32:13.792Z,7.13
2017-03-15T23:33:14.459Z,7.1
2017-03-15T23:34:15.153Z,7.07
2017-03-15T23:35:15.814Z,7.07
2017-03-15T23:36:16.469Z,7.1
2017-03-15T23:37:17.113Z,7.06
2017-03-15T23:38:17.806Z,7.06
2017-03-15T23:39:18.459Z,7.11
2017-03-15T23:40:19.118Z,6.97
2017-03-15T23:41:19.754Z,7.07
2017-03-15T23:42:20.431Z,6.95
2017-03-15T23:43:21.102Z,6.96
2017-03-15T23:44:21.765Z,7
2017-03-15T23:45:22.414Z,6.93
2017-03-15T23:46:23.073Z,6.96
2017-03-15T23:47:23.741Z,6.95
2017-03-15T23:48:24.390Z,6.93
2017-03-15T23:49:25.064Z,7.07
2017-03-15T23:50:25.742Z,6.92
2017-03-15T23:51:26.408Z,7.06
2017-03-15T23:52:27.055Z,6.99
2017-03-15T23:53:27.715Z,6.96
2017-03-15T23:54:28.379Z,6.95
2017-03-15T23:55:29.045Z,6.88
2017-03-15T23:56:29.719Z,6.96
2017-03-15T23:57:30.373Z,6.97
2017-03-15T23:58:31.060Z,6.99
2017-03-15T23:59:31.717Z,6.93
